Butte Valley, California
Current Conditions -  °F | °C
As of 8:53 AM on Monday 22 Dec 2014 (Local Time) from KOVE Reporting Station
Moderate Fog Moderate Fog  
Wind Chill: 51°   Ceiling: 100
Heat Index: 51°   Visibility: 0.25mi
Dew Point: 50°   Wind: 8mph
Humidity: 96%   Direction: 330°NNW
Pressure: 30.31"   Gusts: NA
Location:  39.5324°N, 121.648°W
Report Text: KOVE 221653Z AUTO 33007KT 1/4SM FG VV001 11/10 A3031 RMK AO2 SLP265 T01060100
Loading
Personal Weather Stations






























Interactive Weather Map New forecast layout! Learn more

10-Day Weather Forecast

Advertisements
Track Severe Weather on mobile